createdAt,value
2022-10-20T00:01:53.778Z,99.7
2022-10-20T00:03:54.991Z,99.72
2022-10-20T00:05:56.335Z,99.72
2022-10-20T00:07:57.711Z,99.74
2022-10-20T00:12:00.079Z,99.76
2022-10-20T00:14:01.120Z,99.76
2022-10-20T00:16:02.084Z,99.76
2022-10-20T00:18:03.975Z,99.75
2022-10-20T00:20:05.935Z,99.74
2022-10-20T00:22:06.999Z,99.74
2022-10-20T00:24:08.296Z,99.73
2022-10-20T00:26:09.956Z,99.76
2022-10-20T00:28:11.461Z,99.76
2022-10-20T00:30:12.897Z,99.78
2022-10-20T00:32:14.373Z,99.78
2022-10-20T00:34:15.916Z,99.79
2022-10-20T00:36:16.921Z,99.77
2022-10-20T00:39:02.463Z,99.8
2022-10-20T00:41:03.687Z,99.79
2022-10-20T00:43:04.669Z,99.76
2022-10-20T00:45:06.035Z,99.78
2022-10-20T00:47:07.609Z,99.79
2022-10-20T00:49:09.311Z,99.77
2022-10-20T00:51:11.239Z,99.77
2022-10-20T00:55:13.441Z,99.74
2022-10-20T00:57:14.662Z,99.74
2022-10-20T00:59:16.443Z,99.74
2022-10-20T01:01:18.308Z,99.73
2022-10-20T01:05:21.131Z,99.71
2022-10-20T01:07:22.598Z,99.69
2022-10-20T01:09:24.464Z,99.67
2022-10-20T01:11:26.314Z,99.64
2022-10-20T01:13:27.991Z,99.67
2022-10-20T01:15:29.644Z,99.69
2022-10-20T01:17:31.205Z,99.69
2022-10-20T01:19:32.556Z,99.7
2022-10-20T01:21:33.868Z,99.7
2022-10-20T01:23:35.837Z,99.74
2022-10-20T01:25:37.680Z,99.76
2022-10-20T01:27:39.199Z,99.75
2022-10-20T01:29:40.677Z,99.75
2022-10-20T01:31:41.738Z,99.75
2022-10-20T01:33:43.606Z,99.75
2022-10-20T01:35:44.868Z,99.75
2022-10-20T01:37:49.164Z,99.73
2022-10-20T01:39:48.341Z,99.7
2022-10-20T01:41:49.621Z,99.71
2022-10-20T01:43:50.760Z,99.7
2022-10-20T01:47:54.509Z,99.73
2022-10-20T01:49:55.647Z,99.74
2022-10-20T01:51:57.230Z,99.75
2022-10-20T01:53:58.757Z,99.75
2022-10-20T01:55:59.994Z,99.74
2022-10-20T01:58:01.442Z,99.74
2022-10-20T02:00:02.808Z,99.71
2022-10-20T02:02:04.087Z,99.68
2022-10-20T02:04:05.572Z,99.67
2022-10-20T02:06:06.930Z,99.66
2022-10-20T02:08:08.528Z,99.68
2022-10-20T02:10:09.814Z,99.7
2022-10-20T02:12:10.890Z,99.67
2022-10-20T02:14:12.846Z,99.67
2022-10-20T02:16:13.882Z,99.66
2022-10-20T02:20:17.263Z,99.63
2022-10-20T02:22:18.874Z,99.61
2022-10-20T02:24:20.313Z,99.64
2022-10-20T02:26:21.646Z,99.65
2022-10-20T02:30:24.503Z,99.65
2022-10-20T02:32:25.935Z,99.66
2022-10-20T02:34:27.218Z,99.63
2022-10-20T02:36:28.932Z,99.61
2022-10-20T02:38:30.590Z,99.58
2022-10-20T02:40:32.327Z,99.58
2022-10-20T02:42:33.724Z,99.54
2022-10-20T02:44:35.200Z,99.54
2022-10-20T02:46:37.060Z,99.56
2022-10-20T02:48:38.296Z,99.57
2022-10-20T02:50:40.206Z,99.6
2022-10-20T02:52:41.484Z,99.59
2022-10-20T02:54:43.059Z,99.57
2022-10-20T02:56:44.464Z,99.54
2022-10-20T02:58:45.892Z,99.53
2022-10-20T03:02:48.654Z,99.48
2022-10-20T03:04:50.137Z,99.47
2022-10-20T03:06:52.054Z,99.47
2022-10-20T03:08:54.311Z,99.49
2022-10-20T03:12:57.327Z,99.47
2022-10-20T03:14:59.131Z,99.46
2022-10-20T03:17:00.509Z,99.46
2022-10-20T03:19:04.542Z,99.47
2022-10-20T03:21:03.316Z,99.49
2022-10-20T03:23:04.363Z,99.48
2022-10-20T03:25:06.297Z,99.49
2022-10-20T03:27:07.445Z,99.48
2022-10-20T03:29:08.518Z,99.45
2022-10-20T03:31:10.429Z,99.45
2022-10-20T03:33:11.672Z,99.43
2022-10-20T03:35:13.561Z,99.46
2022-10-20T03:37:14.779Z,99.44
2022-10-20T03:39:15.959Z,99.45
2022-10-20T03:41:16.944Z,99.43
2022-10-20T03:43:18.171Z,99.3
2022-10-20T03:45:19.773Z,99.18
2022-10-20T03:47:21.234Z,99.19
2022-10-20T03:49:22.648Z,99.06
2022-10-20T03:51:24.148Z,98.98
2022-10-20T03:53:25.587Z,98.88
2022-10-20T03:55:26.566Z,98.96
2022-10-20T03:57:27.605Z,98.81
2022-10-20T04:01:30.643Z,98.64
2022-10-20T04:03:32.210Z,98.54
2022-10-20T04:05:33.563Z,98.43
2022-10-20T04:07:35.521Z,98.57
2022-10-20T04:11:38.502Z,98.26
2022-10-20T04:13:39.755Z,98.09
2022-10-20T04:15:41.086Z,97.9
2022-10-20T04:17:42.725Z,97.76
2022-10-20T04:19:43.958Z,97.6
2022-10-20T04:21:45.434Z,97.38
2022-10-20T04:23:46.784Z,97.02
2022-10-20T04:25:48.137Z,96.84
2022-10-20T04:27:49.281Z,96.81
2022-10-20T04:29:50.322Z,96.71
2022-10-20T04:31:52.171Z,96.47
2022-10-20T04:33:53.795Z,96.33
2022-10-20T04:35:55.759Z,96.36
2022-10-20T04:37:57.631Z,96.36
2022-10-20T04:39:59.203Z,96.74
2022-10-20T04:42:00.844Z,96.86
2022-10-20T04:44:01.996Z,96.95
2022-10-20T04:46:05.417Z,97.02
2022-10-20T04:48:05.802Z,97.16
2022-10-20T04:50:07.285Z,97.22
2022-10-20T04:54:09.736Z,97.38
2022-10-20T04:56:11.265Z,97.44
2022-10-20T04:58:12.246Z,97.58
2022-10-20T05:00:13.492Z,97.8
2022-10-20T05:02:14.978Z,97.23
2022-10-20T05:04:16.681Z,97.41
2022-10-20T05:06:18.489Z,97.5
2022-10-20T05:08:19.515Z,97.61
2022-10-20T05:10:21.194Z,97.53
2022-10-20T05:12:22.286Z,97.25
2022-10-20T05:14:24.130Z,97.51
2022-10-20T05:16:25.705Z,97.32
2022-10-20T05:18:27.635Z,97.41
2022-10-20T05:20:30.930Z,97.52
2022-10-20T05:22:29.704Z,97.35
2022-10-20T05:26:33.149Z,97.25
2022-10-20T05:28:35.104Z,97.2
2022-10-20T05:30:36.694Z,97.2
2022-10-20T05:32:38.567Z,97.29
2022-10-20T05:36:41.150Z,97.41
2022-10-20T05:38:43.016Z,97.35
2022-10-20T05:40:53.440Z,97.18
2022-10-20T05:42:46.153Z,97.09
2022-10-20T05:44:47.853Z,97.13
2022-10-20T05:46:49.570Z,97.15
2022-10-20T05:48:51.368Z,97.24
2022-10-20T05:50:52.466Z,97.28
2022-10-20T05:52:53.398Z,97.34
2022-10-20T05:54:54.755Z,97.35
2022-10-20T05:56:56.290Z,97.43
2022-10-20T05:58:57.529Z,97.42
2022-10-20T06:00:59.103Z,97.48
2022-10-20T06:05:02.070Z,97.7
2022-10-20T06:07:03.542Z,97.73
2022-10-20T06:09:04.920Z,97.65
2022-10-20T06:11:05.879Z,97.63
2022-10-20T06:13:07.100Z,97.61
2022-10-20T06:17:10.098Z,97.6
2022-10-20T06:19:11.592Z,97.63
2022-10-20T06:21:12.777Z,97.63
2022-10-20T06:25:15.771Z,97.7
2022-10-20T06:27:17.126Z,97.67
2022-10-20T06:29:18.274Z,97.87
2022-10-20T06:31:19.702Z,97.95
2022-10-20T06:35:22.298Z,98.05
2022-10-20T06:37:23.621Z,98.08
2022-10-20T06:39:25.121Z,98.19
2022-10-20T06:41:26.631Z,98.18
2022-10-20T06:43:28.207Z,98.16
2022-10-20T06:45:29.498Z,98.26
2022-10-20T06:47:31.013Z,98.26
2022-10-20T06:49:32.394Z,98.12
2022-10-20T06:51:33.516Z,97.82
2022-10-20T06:53:34.959Z,97.62
2022-10-20T06:55:35.964Z,97.71
2022-10-20T06:57:37.466Z,97.85
2022-10-20T06:59:38.745Z,97.84
2022-10-20T07:01:39.680Z,97.81
2022-10-20T07:03:40.655Z,97.66
2022-10-20T07:07:43.653Z,97.4
2022-10-20T07:09:44.666Z,97.22
2022-10-20T07:11:46.559Z,97.11
2022-10-20T07:13:47.625Z,97.15
2022-10-20T07:17:50.757Z,97.14
2022-10-20T07:19:51.904Z,97.11
2022-10-20T07:21:53.308Z,97
2022-10-20T07:23:54.423Z,96.98
2022-10-20T07:24:38.205Z,96.97
2022-10-20T07:26:39.872Z,96.94
2022-10-20T07:28:41.666Z,96.9
2022-10-20T07:30:43.185Z,96.91
2022-10-20T07:32:44.290Z,96.94
2022-10-20T07:34:45.860Z,96.89
2022-10-20T07:36:47.300Z,96.95
2022-10-20T07:38:49.074Z,97.55
2022-10-20T07:40:50.085Z,97.55
2022-10-20T07:42:51.379Z,97.47
2022-10-20T07:44:53.049Z,97.26
2022-10-20T07:46:54.567Z,97.32
2022-10-20T07:48:59.569Z,97.19
2022-10-20T07:50:57.414Z,97.48
2022-10-20T07:55:06.239Z,97
2022-10-20T07:57:01.508Z,96.98
2022-10-20T07:59:02.991Z,96.94
2022-10-20T08:01:03.899Z,96.94
2022-10-20T08:03:04.903Z,96.88
2022-10-20T08:05:06.242Z,96.61
2022-10-20T08:07:07.380Z,96.57
2022-10-20T08:09:08.894Z,95.36
2022-10-20T08:11:10.461Z,95.57
2022-10-20T08:13:11.182Z,94.9
2022-10-20T08:15:12.483Z,95.22
2022-10-20T08:17:13.780Z,95.07
2022-10-20T08:19:15.599Z,94.94
2022-10-20T08:21:17.025Z,93.69
2022-10-20T08:23:18.856Z,93.83
2022-10-20T08:25:20.169Z,93.84
2022-10-20T08:27:21.910Z,93.18
2022-10-20T08:29:23.538Z,93.62
2022-10-20T08:31:24.786Z,93.23
2022-10-20T08:33:26.354Z,92.49
2022-10-20T08:35:27.441Z,92.73
2022-10-20T08:39:30.215Z,92.36
2022-10-20T08:41:38.871Z,92.56
2022-10-20T08:43:33.395Z,92.83
2022-10-20T08:45:38.294Z,92.35
2022-10-20T08:47:36.429Z,92.58
2022-10-20T08:49:37.544Z,92.48
2022-10-20T08:53:40.548Z,92.31
2022-10-20T08:55:42.199Z,92.34
2022-10-20T08:57:43.723Z,92.22
2022-10-20T08:59:44.626Z,92.19
2022-10-20T09:01:46.560Z,92.36
2022-10-20T09:03:47.363Z,92.77
2022-10-20T09:05:48.645Z,92.55
2022-10-20T09:07:49.545Z,92.78
2022-10-20T09:09:50.982Z,93.39
2022-10-20T09:11:52.669Z,93.04
2022-10-20T09:13:53.555Z,91.3
2022-10-20T09:15:55.338Z,91.29
2022-10-20T09:17:56.740Z,91.19
2022-10-20T09:19:58.649Z,91.46
2022-10-20T09:21:59.714Z,91.29
2022-10-20T09:26:01.784Z,91.71
2022-10-20T09:28:02.726Z,91.29
2022-10-20T09:30:04.506Z,91.28
2022-10-20T09:32:27.930Z,90.96
2022-10-20T09:36:09.066Z,91.21
2022-10-20T09:38:10.073Z,91.09
2022-10-20T09:40:11.327Z,90.91
2022-10-20T09:42:12.420Z,90.58
2022-10-20T09:44:13.412Z,90.51
2022-10-20T09:46:15.325Z,90.43
2022-10-20T09:48:16.688Z,90.94
2022-10-20T09:50:18.061Z,90.57
2022-10-20T09:52:19.493Z,89.94
2022-10-20T09:54:20.790Z,89.9
2022-10-20T09:56:22.103Z,89.09
2022-10-20T09:58:23.617Z,89.02
2022-10-20T10:00:35.675Z,88.95
2022-10-20T10:02:26.841Z,89.48
2022-10-20T10:04:36.255Z,90.2
2022-10-20T10:06:29.792Z,89.89
2022-10-20T10:08:30.847Z,89.7
2022-10-20T10:10:31.755Z,89.76
2022-10-20T10:12:33.788Z,89.31
2022-10-20T10:14:34.597Z,88.99
2022-10-20T10:16:36.389Z,88.22
2022-10-20T10:18:37.283Z,89.7
2022-10-20T10:20:38.477Z,88.45
2022-10-20T10:24:41.407Z,88.93
2022-10-20T10:26:43.179Z,89.08
2022-10-20T10:28:44.417Z,87.31
2022-10-20T10:30:47.021Z,88.76
2022-10-20T10:34:48.762Z,86.7
2022-10-20T10:36:50.080Z,87.3
2022-10-20T10:38:50.904Z,86.46
2022-10-20T10:40:52.051Z,87.15
2022-10-20T10:42:53.516Z,85.91
2022-10-20T10:44:54.421Z,86.54
2022-10-20T10:46:55.928Z,86.61
2022-10-20T10:48:58.277Z,86.33
2022-10-20T10:50:59.221Z,86.32
2022-10-20T10:53:01.038Z,85.73
2022-10-20T10:55:02.675Z,85.35
2022-10-20T10:57:05.275Z,85.55
2022-10-20T10:59:05.337Z,85.49
2022-10-20T11:01:06.641Z,85.23
2022-10-20T11:03:08.241Z,84.25
2022-10-20T11:05:09.716Z,83.91
2022-10-20T11:07:11.515Z,86.14
2022-10-20T11:09:12.882Z,84.71
2022-10-20T11:11:14.391Z,84.99
2022-10-20T11:13:15.287Z,85.12
2022-10-20T11:17:18.259Z,85.52
2022-10-20T11:19:19.845Z,84.69
2022-10-20T11:21:20.910Z,86.37
2022-10-20T11:23:22.044Z,85.67
2022-10-20T11:25:23.485Z,85.76
2022-10-20T11:27:24.981Z,85.65
2022-10-20T11:29:26.705Z,85.26
2022-10-20T11:31:27.613Z,85.26
2022-10-20T11:33:28.743Z,86.96
2022-10-20T11:35:29.819Z,87.31
2022-10-20T11:37:30.656Z,86.28
2022-10-20T11:39:32.039Z,87
2022-10-20T11:41:33.509Z,86.5
2022-10-20T11:43:35.027Z,85.71
2022-10-20T11:45:36.550Z,86.68
2022-10-20T11:47:37.992Z,86.72
2022-10-20T11:49:39.565Z,85.76
2022-10-20T11:51:40.897Z,85.76
2022-10-20T11:53:42.070Z,85.78
2022-10-20T11:55:43.537Z,86.88
2022-10-20T11:59:46.507Z,85.1
2022-10-20T12:01:47.667Z,84.26
2022-10-20T12:05:50.539Z,82.66
2022-10-20T12:07:54.077Z,83.62
2022-10-20T12:09:52.776Z,83.76
2022-10-20T12:11:54.412Z,84.75
2022-10-20T12:14:04.236Z,82.68
2022-10-20T12:16:05.607Z,83.9
2022-10-20T12:17:58.428Z,84.77
2022-10-20T12:20:00.077Z,82.79
2022-10-20T12:22:00.845Z,80.6
2022-10-20T12:24:02.382Z,82.64
2022-10-20T12:26:03.301Z,83.86
2022-10-20T12:28:04.663Z,82.19
2022-10-20T12:30:05.841Z,83.13
2022-10-20T12:32:07.493Z,83.86
2022-10-20T12:34:08.392Z,83.23
2022-10-20T12:36:09.461Z,83.67
2022-10-20T12:38:11.243Z,83.55
2022-10-20T12:40:12.629Z,83.52
2022-10-20T12:42:13.769Z,84.5
2022-10-20T12:44:15.070Z,83.33
2022-10-20T12:46:16.295Z,84.1
2022-10-20T12:48:17.968Z,82.94
2022-10-20T12:50:19.148Z,83.18
2022-10-20T12:52:20.357Z,82.17
2022-10-20T12:54:21.239Z,81.61
2022-10-20T12:58:23.958Z,82.69
2022-10-20T13:00:25.678Z,84.83
2022-10-20T13:02:27.309Z,83.54
2022-10-20T13:06:29.643Z,83.61
2022-10-20T13:08:31.100Z,83.49
2022-10-20T13:10:32.864Z,84.56
2022-10-20T13:12:34.387Z,83.81
2022-10-20T13:14:35.451Z,83.68
2022-10-20T13:16:36.872Z,83.26
2022-10-20T13:18:38.710Z,84.15
2022-10-20T13:20:39.868Z,83.1
2022-10-20T13:22:41.258Z,83.17
2022-10-20T13:26:43.765Z,83.27
2022-10-20T13:30:46.293Z,82.25
2022-10-20T13:32:53.779Z,82.39
2022-10-20T13:34:48.356Z,82.27
2022-10-20T13:36:49.425Z,82.14
2022-10-20T13:40:52.252Z,82.42
2022-10-20T13:42:53.788Z,82.85
2022-10-20T13:46:56.288Z,84.25
2022-10-20T13:48:57.184Z,84.01
2022-10-20T13:50:58.324Z,83.89
2022-10-20T13:52:59.379Z,82.84
2022-10-20T13:55:00.881Z,83.55
2022-10-20T13:57:01.799Z,83.63
2022-10-20T13:59:05.612Z,83.5
2022-10-20T14:01:04.465Z,82.81
2022-10-20T14:03:05.373Z,83.55
2022-10-20T14:05:07.007Z,83.35
2022-10-20T14:07:08.599Z,83.41
2022-10-20T14:09:09.988Z,83.76
2022-10-20T14:11:54.940Z,85.03
2022-10-20T14:13:56.145Z,84.64
2022-10-20T14:15:57.561Z,84.99
2022-10-20T14:17:58.582Z,85.19
2022-10-20T14:19:59.713Z,85.51
2022-10-20T14:24:01.928Z,86.48
2022-10-20T14:26:03.420Z,86.47
2022-10-20T14:28:05.329Z,86.79
2022-10-20T14:30:06.745Z,87.82
2022-10-20T14:32:08.554Z,89.05
2022-10-20T14:34:09.962Z,88.65
2022-10-20T14:36:11.227Z,88.88
2022-10-20T14:40:13.263Z,89.52
2022-10-20T14:42:14.582Z,89.93
2022-10-20T14:44:22.560Z,89.28
2022-10-20T14:46:16.692Z,90.5
2022-10-20T14:48:17.869Z,91.06
2022-10-20T14:50:19.542Z,90.67
2022-10-20T14:52:21.654Z,90.91
2022-10-20T14:54:22.675Z,90.96
2022-10-20T14:56:23.765Z,90.68
2022-10-20T14:58:24.929Z,90.37
2022-10-20T15:00:26.318Z,91.02
2022-10-20T15:02:27.986Z,90.5
2022-10-20T15:06:30.598Z,91.59
2022-10-20T15:08:32.399Z,90.95
2022-10-20T15:10:33.797Z,90.58
2022-10-20T15:12:35.757Z,90.83
2022-10-20T15:14:36.306Z,90.76
2022-10-20T15:16:37.297Z,92.05
2022-10-20T15:18:39.356Z,93.16
2022-10-20T15:20:39.693Z,93.67
2022-10-20T15:22:40.934Z,93.79
2022-10-20T15:24:42.532Z,94.07
2022-10-20T15:26:43.734Z,94.14
2022-10-20T15:28:44.817Z,94.32
2022-10-20T15:30:45.738Z,94.19
2022-10-20T15:32:46.903Z,93.7
2022-10-20T15:34:48.501Z,92.42
2022-10-20T15:36:51.013Z,92.46
2022-10-20T15:38:50.984Z,92.31
2022-10-20T15:40:52.441Z,92.13
2022-10-20T15:42:53.558Z,92.08
2022-10-20T15:44:54.887Z,92.46
2022-10-20T15:46:56.104Z,92.57
2022-10-20T15:48:57.306Z,92.66
2022-10-20T15:50:58.600Z,92.87
2022-10-20T15:55:01.254Z,92.29
2022-10-20T15:57:02.553Z,93.39
2022-10-20T16:01:06.891Z,94.41
2022-10-20T16:05:08.952Z,94.97
2022-10-20T16:07:10.409Z,95.08
2022-10-20T16:09:13.365Z,95.16
2022-10-20T16:11:13.134Z,95.38
2022-10-20T16:13:14.747Z,95.5
2022-10-20T16:15:16.481Z,94.9
2022-10-20T16:17:17.858Z,94.04
2022-10-20T16:19:19.741Z,92.64
2022-10-20T16:21:21.415Z,91.58
2022-10-20T16:23:22.316Z,91.68
2022-10-20T16:25:23.372Z,92.98
2022-10-20T16:27:25.025Z,94.16
2022-10-20T16:29:26.060Z,94.35
2022-10-20T16:31:27.163Z,93.17
2022-10-20T16:33:29.038Z,92.21
2022-10-20T16:35:30.913Z,91.04
2022-10-20T16:37:32.014Z,90.91
2022-10-20T16:39:33.326Z,90.59
2022-10-20T16:41:34.937Z,90.4
2022-10-20T16:43:36.533Z,90.69
2022-10-20T16:47:39.057Z,91.12
2022-10-20T16:49:40.224Z,91.29
2022-10-20T16:51:41.427Z,90.96
2022-10-20T16:53:42.827Z,91.88
2022-10-20T16:55:44.345Z,92.43
2022-10-20T16:57:46.067Z,92.82
2022-10-20T16:59:47.080Z,93.35
2022-10-20T17:01:48.128Z,93.52
2022-10-20T17:03:49.907Z,93.56
2022-10-20T17:05:50.867Z,93.48
2022-10-20T17:07:52.040Z,93.42
2022-10-20T17:09:53.282Z,93.31
2022-10-20T17:11:55.110Z,92.85
2022-10-20T17:13:56.021Z,93.37
2022-10-20T17:15:57.240Z,93.35
2022-10-20T17:19:59.503Z,94.34
2022-10-20T17:22:00.821Z,95.06
2022-10-20T17:24:02.415Z,95.1
2022-10-20T17:26:03.798Z,95.12
2022-10-20T17:30:06.862Z,93.47
2022-10-20T17:32:08.375Z,92.56
2022-10-20T17:34:10.250Z,92
2022-10-20T17:36:12.137Z,93.33
2022-10-20T17:38:13.714Z,94.22
2022-10-20T17:40:14.927Z,94.57
2022-10-20T17:42:15.965Z,93.02
2022-10-20T17:44:17.262Z,91.38
2022-10-20T17:46:18.674Z,90.83
2022-10-20T17:48:20.166Z,90.43
2022-10-20T17:50:21.187Z,90.79
2022-10-20T17:52:23.017Z,90.39
2022-10-20T17:54:24.132Z,90.62
2022-10-20T17:56:25.504Z,90.26
2022-10-20T17:58:26.392Z,90.91
2022-10-20T18:00:44.165Z,91.01
2022-10-20T18:02:29.145Z,90.88
2022-10-20T18:04:30.790Z,92.55
2022-10-20T18:06:34.271Z,93.17
2022-10-20T18:08:33.304Z,93.25
2022-10-20T18:10:35.444Z,93.05
2022-10-20T18:12:36.385Z,90.88
2022-10-20T18:14:37.170Z,90.74
2022-10-20T18:16:38.170Z,90.95
2022-10-20T18:18:39.250Z,90.21
2022-10-20T18:20:41.072Z,90
2022-10-20T18:22:42.957Z,89.9
2022-10-20T18:24:44.442Z,89.47
2022-10-20T18:28:48.154Z,89.68
2022-10-20T18:30:49.067Z,89.56
2022-10-20T18:32:50.817Z,89.61
2022-10-20T18:34:52.029Z,89.93
2022-10-20T18:36:53.762Z,90.91
2022-10-20T18:38:54.933Z,91.74
2022-10-20T18:40:56.593Z,92.34
2022-10-20T18:42:57.903Z,92.69
2022-10-20T18:44:59.440Z,92.91
2022-10-20T18:47:08.491Z,93.02
2022-10-20T18:49:02.114Z,93.17
2022-10-20T18:51:03.955Z,93.56
2022-10-20T18:53:05.840Z,93.91
2022-10-20T18:55:07.004Z,94.14
2022-10-20T18:57:08.403Z,94.25
2022-10-20T18:59:09.326Z,94.4
2022-10-20T19:01:10.413Z,94.47
2022-10-20T19:03:11.540Z,94.46
2022-10-20T19:07:14.196Z,94.47
2022-10-20T19:09:16.062Z,94.57
2022-10-20T19:11:17.601Z,94.57
2022-10-20T19:13:18.677Z,94.4
2022-10-20T19:15:20.182Z,94.44
2022-10-20T19:17:22.043Z,94.5
2022-10-20T19:19:23.664Z,94.87
2022-10-20T19:21:25.535Z,95.01
2022-10-20T19:23:27.242Z,95.1
2022-10-20T19:25:28.731Z,95.38
2022-10-20T19:27:30.264Z,95.59
2022-10-20T19:29:31.677Z,95.7
2022-10-20T19:31:32.828Z,95.85
2022-10-20T19:33:33.835Z,95.77
2022-10-20T19:35:34.992Z,95.79
2022-10-20T19:37:35.972Z,95.77
2022-10-20T19:39:37.636Z,95.76
2022-10-20T19:43:41.038Z,95.86
2022-10-20T19:45:45.330Z,95.92
2022-10-20T19:47:43.735Z,96.02
2022-10-20T19:49:45.442Z,96.13
2022-10-20T19:53:49.109Z,96.54
2022-10-20T19:55:50.299Z,96.73
2022-10-20T19:57:52.086Z,96.77
2022-10-20T19:59:53.031Z,96.85
2022-10-20T20:01:54.195Z,97.04
2022-10-20T20:03:55.533Z,97.07
2022-10-20T20:05:57.324Z,97.19
2022-10-20T20:07:58.609Z,97.39
2022-10-20T20:10:00.442Z,97.49
2022-10-20T20:12:01.427Z,97.45
2022-10-20T20:14:03.004Z,97.56
2022-10-20T20:16:06.290Z,97.64
2022-10-20T20:18:06.264Z,97.65
2022-10-20T20:20:08.162Z,97.7
2022-10-20T20:22:09.414Z,97.32
2022-10-20T20:26:12.695Z,96.91
2022-10-20T20:28:13.031Z,97.07
2022-10-20T20:30:13.968Z,97.31
2022-10-20T20:32:15.169Z,97.27
2022-10-20T20:34:16.160Z,97.33
2022-10-20T20:36:17.616Z,97.44
2022-10-20T20:38:18.560Z,97.47
2022-10-20T20:42:20.993Z,97.68
2022-10-20T20:46:24.049Z,97.78
2022-10-20T20:48:25.134Z,97.86
2022-10-20T20:52:27.376Z,97.99
2022-10-20T20:54:29.506Z,98.04
2022-10-20T20:55:12.184Z,97.95
2022-10-20T20:57:13.396Z,97.83
2022-10-20T20:59:15.103Z,97.91
2022-10-20T21:01:16.416Z,97.95
2022-10-20T21:03:18.127Z,97.93
2022-10-20T21:05:19.353Z,97.9
2022-10-20T21:07:20.985Z,97.91
2022-10-20T21:09:22.008Z,97.94
2022-10-20T21:11:22.939Z,97.94
2022-10-20T21:13:24.091Z,97.94
2022-10-20T21:15:25.981Z,97.95
2022-10-20T21:19:29.053Z,97.97
2022-10-20T21:21:30.260Z,98.01
2022-10-20T21:23:31.456Z,98.01
2022-10-20T21:25:32.689Z,98
2022-10-20T21:29:35.268Z,98.04
2022-10-20T21:31:36.462Z,98.13
2022-10-20T21:33:37.352Z,98.27
2022-10-20T21:35:38.456Z,98.36
2022-10-20T21:37:40.330Z,98.34
2022-10-20T21:39:41.837Z,98.36
2022-10-20T21:41:43.081Z,98.34
2022-10-20T21:43:43.962Z,97.85
2022-10-20T21:45:45.242Z,97.52
2022-10-20T21:47:46.236Z,97.46
2022-10-20T21:49:47.960Z,97.44
2022-10-20T21:51:49.667Z,97.38
2022-10-20T21:53:50.711Z,97.35
2022-10-20T21:55:52.278Z,97.06
2022-10-20T21:57:54.098Z,96.91
2022-10-20T21:59:55.965Z,97.02
2022-10-20T22:01:56.948Z,97.03
2022-10-20T22:03:58.373Z,97.09
2022-10-20T22:05:59.676Z,97.13
2022-10-20T22:08:00.686Z,97.3
2022-10-20T22:10:01.791Z,97.44
2022-10-20T22:12:03.074Z,97.52
2022-10-20T22:14:04.947Z,97.6
2022-10-20T22:18:08.308Z,97.66
2022-10-20T22:20:09.760Z,97.7
2022-10-20T22:22:10.809Z,97.74
2022-10-20T22:24:12.011Z,97.77
2022-10-20T22:28:14.392Z,97.61
2022-10-20T22:30:15.493Z,97.7
2022-10-20T22:32:16.544Z,97.9
2022-10-20T22:34:18.396Z,97.99
2022-10-20T22:36:20.158Z,98.05
2022-10-20T22:38:21.908Z,97.99
2022-10-20T22:40:23.331Z,97.92
2022-10-20T22:42:24.899Z,97.72
2022-10-20T22:44:25.960Z,97.62
2022-10-20T22:46:27.253Z,97.56
2022-10-20T22:48:28.501Z,97.35
2022-10-20T22:50:29.954Z,97.46
2022-10-20T22:52:31.758Z,97.49
2022-10-20T22:54:33.228Z,97.49
2022-10-20T22:56:34.659Z,97.64
2022-10-20T22:58:35.662Z,97.66
2022-10-20T23:00:37.369Z,97.72
2022-10-20T23:02:39.326Z,97.68
2022-10-20T23:04:40.677Z,97.68
2022-10-20T23:06:42.124Z,97.71
2022-10-20T23:08:51.359Z,97.74
2022-10-20T23:10:44.561Z,97.82
2022-10-20T23:12:46.297Z,97.9
2022-10-20T23:14:47.716Z,97.95
2022-10-20T23:16:48.862Z,97.99
2022-10-20T23:18:50.466Z,98.03
2022-10-20T23:20:52.767Z,98.09
2022-10-20T23:22:52.932Z,98.12
2022-10-20T23:24:54.110Z,98.17
2022-10-20T23:26:55.799Z,98.19
2022-10-20T23:28:56.815Z,98.15
2022-10-20T23:30:57.837Z,98.15
2022-10-20T23:32:59.619Z,98.16
2022-10-20T23:35:00.573Z,98.16
2022-10-20T23:37:01.701Z,98.05
2022-10-20T23:39:03.174Z,97.98
2022-10-20T23:41:04.206Z,97.97
2022-10-20T23:43:05.051Z,97.91
2022-10-20T23:45:06.211Z,98.06
2022-10-20T23:47:07.516Z,98.21
2022-10-20T23:49:09.324Z,98.23
2022-10-20T23:51:10.333Z,98.23
2022-10-20T23:53:11.852Z,97.97
2022-10-20T23:55:14.632Z,97.87
2022-10-20T23:59:14.909Z,97.38
